createdAt,value
2023-06-22T00:01:25.923Z,99.90
2023-06-22T00:03:52.960Z,99.90
2023-06-22T00:06:20.212Z,99.90
2023-06-22T00:08:48.394Z,99.90
2023-06-22T00:11:15.313Z,99.90
2023-06-22T00:13:42.290Z,99.90
2023-06-22T00:16:09.191Z,99.90
2023-06-22T00:18:36.066Z,99.90
2023-06-22T00:21:02.981Z,99.90
2023-06-22T00:23:29.933Z,99.90
2023-06-22T00:25:56.801Z,99.90
2023-06-22T00:28:23.752Z,99.90
2023-06-22T00:30:51.014Z,99.90
2023-06-22T00:33:18.103Z,99.90
2023-06-22T00:35:45.379Z,99.90
2023-06-22T00:38:12.857Z,99.90
2023-06-22T00:40:39.968Z,99.90
2023-06-22T00:43:07.473Z,99.90
2023-06-22T00:45:34.464Z,99.90
2023-06-22T00:48:02.319Z,99.90
2023-06-22T00:50:36.178Z,99.90
2023-06-22T00:53:10.560Z,99.90
2023-06-22T00:55:40.602Z,99.90
2023-06-22T00:58:11.218Z,99.90
2023-06-22T01:00:39.906Z,99.90
2023-06-22T01:03:10.102Z,99.90
2023-06-22T01:05:38.862Z,99.90
2023-06-22T01:08:45.254Z,99.90
2023-06-22T01:11:47.117Z,99.90
2023-06-22T01:14:27.421Z,99.90
2023-06-22T01:16:57.794Z,99.90
2023-06-22T01:19:47.669Z,99.90
2023-06-22T01:22:18.211Z,99.90
2023-06-22T01:25:00.798Z,99.90
2023-06-22T01:27:30.237Z,99.90
2023-06-22T01:30:01.641Z,99.90
2023-06-22T01:32:35.780Z,99.90
2023-06-22T01:35:07.046Z,99.90
2023-06-22T01:37:36.447Z,99.90
2023-06-22T01:40:06.708Z,99.90
2023-06-22T01:42:34.130Z,99.90
2023-06-22T01:45:01.981Z,99.90
2023-06-22T01:47:29.304Z,99.90
2023-06-22T01:49:56.444Z,99.90
2023-06-22T01:52:23.451Z,99.90
2023-06-22T01:54:50.333Z,99.90
2023-06-22T01:57:17.516Z,99.90
2023-06-22T02:00:06.112Z,99.90
2023-06-22T02:02:48.971Z,99.90
2023-06-22T02:05:19.130Z,99.90
2023-06-22T02:08:00.225Z,99.90
2023-06-22T02:10:29.893Z,99.90
2023-06-22T02:12:58.926Z,99.90
2023-06-22T02:15:26.688Z,99.90
2023-06-22T02:17:53.970Z,99.90
2023-06-22T02:20:21.364Z,99.90
2023-06-22T02:22:48.288Z,99.90
2023-06-22T02:25:15.714Z,99.90
2023-06-22T02:27:42.713Z,99.90
2023-06-22T02:30:10.666Z,99.90
2023-06-22T02:32:37.705Z,99.90
2023-06-22T02:35:05.629Z,99.90
2023-06-22T02:37:33.540Z,99.90
2023-06-22T02:40:00.426Z,99.90
2023-06-22T02:42:27.333Z,99.90
2023-06-22T02:44:54.234Z,99.90
2023-06-22T02:47:21.275Z,99.90
2023-06-22T02:49:48.180Z,99.90
2023-06-22T02:52:15.113Z,99.90
2023-06-22T02:54:42.016Z,99.90
2023-06-22T02:57:14.938Z,99.90
2023-06-22T02:59:42.973Z,99.90
2023-06-22T03:02:10.675Z,99.90
2023-06-22T03:04:37.712Z,99.90
2023-06-22T03:07:04.996Z,99.90
2023-06-22T03:09:33.428Z,99.90
2023-06-22T03:12:00.384Z,99.90
2023-06-22T03:14:27.536Z,99.90
2023-06-22T03:16:54.453Z,99.90
2023-06-22T03:19:22.710Z,99.90
2023-06-22T03:21:49.733Z,99.90
2023-06-22T03:24:16.639Z,99.90
2023-06-22T03:26:43.597Z,99.90
2023-06-22T03:29:10.660Z,99.90
2023-06-22T03:31:37.617Z,99.90
2023-06-22T03:34:04.629Z,99.90
2023-06-22T03:36:31.528Z,99.90
2023-06-22T03:38:58.408Z,99.90
2023-06-22T03:41:26.466Z,99.90
2023-06-22T03:43:53.541Z,99.90
2023-06-22T03:46:21.309Z,99.90
2023-06-22T03:48:48.322Z,99.90
2023-06-22T03:51:15.216Z,99.90
2023-06-22T03:53:42.139Z,99.90
2023-06-22T03:56:09.045Z,99.90
2023-06-22T03:58:37.557Z,99.90
2023-06-22T04:01:04.471Z,99.90
2023-06-22T04:03:31.407Z,99.90
2023-06-22T04:05:58.361Z,99.90
2023-06-22T04:08:25.293Z,99.90
2023-06-22T04:10:52.253Z,99.90
2023-06-22T04:13:19.173Z,99.90
2023-06-22T04:15:46.181Z,99.90
2023-06-22T04:18:14.435Z,99.90
2023-06-22T04:20:41.351Z,99.90
2023-06-22T04:23:08.343Z,99.90
2023-06-22T04:25:35.324Z,99.90
2023-06-22T04:28:04.302Z,99.90
2023-06-22T04:30:32.721Z,99.90
2023-06-22T04:33:00.198Z,99.90
2023-06-22T04:35:27.208Z,99.90
2023-06-22T04:37:56.301Z,99.90
2023-06-22T04:40:26.812Z,99.90
2023-06-22T04:42:55.042Z,99.90
2023-06-22T04:45:22.415Z,99.90
2023-06-22T04:47:50.117Z,99.90
2023-06-22T04:50:18.326Z,99.90
2023-06-22T04:52:46.597Z,99.90
2023-06-22T04:55:15.682Z,99.90
2023-06-22T04:57:45.750Z,99.90
2023-06-22T05:00:14.144Z,99.90
2023-06-22T05:02:42.143Z,99.90
2023-06-22T05:05:09.998Z,99.90
2023-06-22T05:07:37.729Z,99.90
2023-06-22T05:10:06.020Z,99.90
2023-06-22T05:12:33.008Z,99.90
2023-06-22T05:14:59.959Z,99.90
2023-06-22T05:17:27.044Z,99.90
2023-06-22T05:19:54.432Z,99.90
2023-06-22T05:22:21.385Z,99.90
2023-06-22T05:24:48.629Z,99.90
2023-06-22T05:27:15.956Z,99.90
2023-06-22T05:32:28.143Z,99.90
2023-06-22T05:34:55.062Z,99.90
2023-06-22T05:37:22.553Z,99.90
2023-06-22T05:39:49.444Z,99.90
2023-06-22T05:42:16.292Z,99.90
2023-06-22T05:44:43.168Z,99.90
2023-06-22T05:47:10.104Z,99.90
2023-06-22T05:49:36.963Z,99.90
2023-06-22T05:52:04.193Z,99.90
2023-06-22T05:54:31.863Z,99.90
2023-06-22T05:56:58.804Z,99.90
2023-06-22T05:59:25.723Z,99.90
2023-06-22T06:01:52.784Z,99.90
2023-06-22T06:04:20.464Z,99.90
2023-06-22T06:06:50.152Z,99.90
2023-06-22T06:09:17.053Z,99.90
2023-06-22T06:11:43.959Z,99.90
2023-06-22T06:14:10.836Z,99.90
2023-06-22T06:16:37.799Z,99.90
2023-06-22T06:19:04.642Z,99.90
2023-06-22T06:21:31.618Z,99.90
2023-06-22T06:23:59.709Z,99.90
2023-06-22T06:26:30.591Z,99.90
2023-06-22T06:28:58.734Z,99.90
2023-06-22T06:31:25.740Z,99.90
2023-06-22T06:33:52.801Z,99.90
2023-06-22T06:36:19.716Z,99.90
2023-06-22T06:38:48.144Z,99.90
2023-06-22T06:41:17.321Z,99.90
2023-06-22T06:43:44.431Z,99.90
2023-06-22T06:46:11.643Z,99.90
2023-06-22T06:48:38.578Z,99.90
2023-06-22T06:51:05.439Z,99.90
2023-06-22T06:53:32.332Z,99.90
2023-06-22T06:55:59.274Z,99.90
2023-06-22T06:58:26.177Z,99.90
2023-06-22T07:00:53.200Z,99.90
2023-06-22T07:03:20.083Z,99.90
2023-06-22T07:05:47.000Z,99.90
2023-06-22T07:08:13.928Z,99.90
2023-06-22T07:10:40.843Z,99.90
2023-06-22T07:13:07.696Z,99.90
2023-06-22T07:15:34.573Z,99.90
2023-06-22T07:18:01.482Z,99.90
2023-06-22T07:20:28.848Z,99.90
2023-06-22T07:22:55.960Z,99.90
2023-06-22T07:25:22.864Z,99.90
2023-06-22T07:28:05.082Z,99.90
2023-06-22T07:30:34.650Z,99.90
2023-06-22T07:33:05.054Z,99.90
2023-06-22T07:35:32.460Z,99.90
2023-06-22T07:38:00.087Z,99.90
2023-06-22T07:40:28.730Z,99.90
2023-06-22T07:42:55.842Z,99.90
2023-06-22T07:45:22.723Z,99.90
2023-06-22T07:47:49.934Z,99.90
2023-06-22T07:50:16.896Z,99.90
2023-06-22T07:52:43.860Z,99.90
2023-06-22T07:55:10.757Z,99.90
2023-06-22T07:57:37.678Z,99.90
2023-06-22T08:00:16.864Z,99.90
2023-06-22T08:02:46.828Z,99.90
2023-06-22T08:05:21.834Z,99.90
2023-06-22T08:07:51.087Z,99.90
2023-06-22T08:10:18.645Z,99.90
2023-06-22T08:12:45.512Z,99.90
2023-06-22T08:15:12.513Z,99.90
2023-06-22T08:17:40.435Z,99.90
2023-06-22T08:20:14.945Z,99.90
2023-06-22T08:22:42.976Z,99.90
2023-06-22T08:25:10.970Z,99.90
2023-06-22T08:27:38.048Z,99.90
2023-06-22T08:30:05.900Z,99.90
2023-06-22T08:32:34.128Z,99.90
2023-06-22T08:35:01.451Z,99.90
2023-06-22T08:37:32.319Z,99.90
2023-06-22T08:40:02.216Z,99.90
2023-06-22T08:42:29.283Z,99.90
2023-06-22T08:44:57.173Z,99.90
2023-06-22T08:47:24.533Z,99.90
2023-06-22T08:49:51.656Z,99.90
2023-06-22T08:52:21.006Z,99.90
2023-06-22T08:54:48.938Z,99.90
2023-06-22T08:57:17.018Z,99.90
2023-06-22T08:59:44.469Z,99.90
2023-06-22T09:02:11.454Z,99.90
2023-06-22T09:04:38.597Z,99.90
2023-06-22T09:07:06.317Z,99.90
2023-06-22T09:09:33.237Z,99.90
2023-06-22T09:12:00.133Z,99.90
2023-06-22T09:14:27.158Z,99.90
2023-06-22T09:16:54.089Z,99.90
2023-06-22T09:19:21.016Z,99.90
2023-06-22T09:21:47.944Z,99.90
2023-06-22T09:24:14.914Z,99.90
2023-06-22T09:26:41.965Z,99.90
2023-06-22T09:29:08.875Z,99.90
2023-06-22T09:31:35.840Z,99.90
2023-06-22T09:34:02.794Z,99.90
2023-06-22T09:36:29.765Z,99.90
2023-06-22T09:38:57.090Z,99.90
2023-06-22T09:41:24.288Z,99.90
2023-06-22T09:43:53.026Z,99.90
2023-06-22T09:46:23.572Z,99.90
2023-06-22T09:48:50.471Z,99.90
2023-06-22T09:51:18.305Z,99.90
2023-06-22T09:53:45.272Z,99.90
2023-06-22T09:56:15.857Z,99.90
2023-06-22T09:58:47.736Z,99.90
2023-06-22T10:01:17.657Z,99.90
2023-06-22T10:03:44.795Z,99.90
2023-06-22T10:06:11.869Z,99.90
2023-06-22T10:08:40.219Z,99.90
2023-06-22T10:11:07.424Z,99.90
2023-06-22T10:13:34.367Z,99.90
2023-06-22T10:16:01.261Z,99.90
2023-06-22T10:18:28.311Z,99.90
2023-06-22T10:20:55.284Z,99.90
2023-06-22T10:23:22.997Z,99.90
2023-06-22T10:25:49.872Z,99.90
2023-06-22T10:28:17.087Z,99.90
2023-06-22T10:30:44.888Z,99.90
2023-06-22T10:33:13.155Z,99.90
2023-06-22T10:35:40.209Z,99.90
2023-06-22T10:38:07.676Z,99.90
2023-06-22T10:40:34.675Z,99.90
2023-06-22T10:43:01.624Z,99.90
2023-06-22T10:45:29.358Z,99.90
2023-06-22T10:47:56.925Z,99.90
2023-06-22T10:50:25.553Z,99.90
2023-06-22T10:52:52.767Z,99.50
2023-06-22T10:55:19.862Z,99.20
2023-06-22T10:57:48.174Z,99.90
2023-06-22T11:00:16.650Z,98.30
2023-06-22T11:02:44.436Z,98.10
2023-06-22T11:05:11.572Z,97.80
2023-06-22T11:10:14.405Z,97.50
2023-06-22T11:12:41.367Z,97.90
2023-06-22T11:15:09.538Z,96.80
2023-06-22T11:17:36.883Z,96.50
2023-06-22T11:20:10.807Z,96.50
2023-06-22T11:22:42.092Z,96.10
2023-06-22T11:25:10.066Z,95.90
2023-06-22T11:27:37.010Z,95.70
2023-06-22T11:30:05.007Z,95.50
2023-06-22T11:32:31.943Z,95.40
2023-06-22T11:34:58.925Z,94.40
2023-06-22T11:37:25.839Z,94.90
2023-06-22T11:42:26.428Z,94.70
2023-06-22T11:44:53.319Z,95.00
2023-06-22T11:47:20.275Z,95.60
2023-06-22T11:49:47.532Z,95.20
2023-06-22T11:52:14.477Z,94.40
2023-06-22T11:54:41.363Z,94.20
2023-06-22T11:57:08.320Z,94.20
2023-06-22T11:59:35.342Z,95.00
2023-06-22T12:02:02.255Z,94.20
2023-06-22T12:04:29.117Z,94.90
2023-06-22T12:06:55.985Z,94.30
2023-06-22T12:09:22.949Z,93.30
2023-06-22T12:11:49.843Z,93.90
2023-06-22T12:14:16.732Z,94.00
2023-06-22T12:16:44.996Z,94.20
2023-06-22T12:19:12.576Z,93.70
2023-06-22T12:21:41.710Z,93.10
2023-06-22T12:24:08.713Z,92.50
2023-06-22T12:26:35.607Z,92.40
2023-06-22T12:29:02.502Z,92.40
2023-06-22T12:31:29.440Z,90.90
2023-06-22T12:33:56.366Z,91.70
2023-06-22T12:36:23.302Z,91.70
2023-06-22T12:38:50.169Z,91.50
2023-06-22T12:41:17.085Z,92.10
2023-06-22T12:43:44.035Z,92.90
2023-06-22T12:46:10.941Z,92.30
2023-06-22T12:48:42.682Z,92.80
2023-06-22T12:51:11.304Z,91.30
2023-06-22T12:53:38.201Z,91.20
2023-06-22T12:56:05.274Z,92.00
2023-06-22T12:58:32.207Z,92.00
2023-06-22T13:00:59.137Z,91.10
2023-06-22T13:03:27.664Z,91.10
2023-06-22T13:05:55.362Z,91.00
2023-06-22T13:08:22.227Z,91.10
2023-06-22T13:10:49.209Z,91.40
2023-06-22T13:13:16.072Z,91.60
2023-06-22T13:15:42.977Z,92.20
2023-06-22T13:18:09.945Z,91.80
2023-06-22T13:20:37.004Z,91.70
2023-06-22T13:23:03.895Z,91.70
2023-06-22T13:25:30.974Z,92.10
2023-06-22T13:27:57.998Z,91.30
2023-06-22T13:33:10.369Z,91.20
2023-06-22T13:38:21.750Z,91.60
2023-06-22T13:43:33.814Z,90.20
2023-06-22T13:48:45.247Z,91.10
2023-06-22T13:51:12.162Z,90.10
2023-06-22T13:53:39.059Z,90.40
2023-06-22T13:56:05.973Z,90.00
2023-06-22T13:58:33.045Z,90.00
2023-06-22T14:00:59.959Z,90.00
2023-06-22T14:03:27.231Z,90.00
2023-06-22T14:05:56.723Z,90.20
2023-06-22T14:08:41.092Z,89.50
2023-06-22T14:11:08.847Z,90.30
2023-06-22T14:13:36.878Z,89.50
2023-06-22T14:16:05.586Z,88.80
2023-06-22T14:18:32.561Z,88.00
2023-06-22T14:20:59.413Z,88.10
2023-06-22T14:23:26.592Z,87.30
2023-06-22T14:25:53.631Z,86.40
2023-06-22T14:28:20.574Z,85.00
2023-06-22T14:30:47.461Z,83.10
2023-06-22T14:33:14.616Z,84.20
2023-06-22T14:35:41.565Z,82.70
2023-06-22T14:38:08.543Z,83.00
2023-06-22T14:40:43.814Z,80.60
2023-06-22T14:43:20.608Z,81.00
2023-06-22T14:45:47.507Z,83.20
2023-06-22T14:48:14.453Z,81.70
2023-06-22T14:50:41.308Z,82.30
2023-06-22T14:53:08.219Z,82.80
2023-06-22T14:55:35.292Z,78.90
2023-06-22T14:58:02.201Z,79.90
2023-06-22T15:00:29.419Z,79.50
2023-06-22T15:02:56.631Z,78.60
2023-06-22T15:05:25.206Z,82.10
2023-06-22T15:07:52.205Z,81.70
2023-06-22T15:10:19.088Z,82.40
2023-06-22T15:12:45.999Z,81.20
2023-06-22T15:15:12.926Z,78.60
2023-06-22T15:17:39.819Z,80.80
2023-06-22T15:20:08.127Z,83.20
2023-06-22T15:22:36.289Z,82.00
2023-06-22T15:25:04.387Z,81.40
2023-06-22T15:27:31.267Z,81.90
2023-06-22T15:29:58.398Z,82.50
2023-06-22T15:32:26.375Z,84.20
2023-06-22T15:34:54.971Z,81.80
2023-06-22T15:37:22.045Z,80.10
2023-06-22T15:39:49.026Z,80.30
2023-06-22T15:42:16.325Z,83.10
2023-06-22T15:44:43.388Z,82.80
2023-06-22T15:47:10.405Z,81.40
2023-06-22T15:49:38.031Z,82.70
2023-06-22T15:52:05.304Z,84.70
2023-06-22T15:54:32.275Z,83.40
2023-06-22T15:56:59.204Z,80.60
2023-06-22T15:59:26.680Z,80.20
2023-06-22T16:01:53.645Z,81.70
2023-06-22T16:04:20.512Z,83.40
2023-06-22T16:06:47.389Z,85.20
2023-06-22T16:09:15.378Z,85.70
2023-06-22T16:11:42.281Z,86.10
2023-06-22T16:14:10.905Z,87.30
2023-06-22T16:16:37.830Z,85.20
2023-06-22T16:19:04.713Z,86.80
2023-06-22T16:21:31.606Z,86.60
2023-06-22T16:23:58.585Z,87.30
2023-06-22T16:26:25.569Z,88.20
2023-06-22T16:28:53.128Z,89.80
2023-06-22T16:31:20.149Z,89.10
2023-06-22T16:33:47.983Z,89.10
2023-06-22T16:36:15.488Z,89.90
2023-06-22T16:38:42.953Z,90.20
2023-06-22T16:41:10.815Z,90.10
2023-06-22T16:43:41.480Z,90.00
2023-06-22T16:46:08.893Z,91.00
2023-06-22T16:48:38.199Z,90.70
2023-06-22T16:51:05.548Z,91.20
2023-06-22T16:53:32.789Z,92.10
2023-06-22T16:55:59.684Z,91.90
2023-06-22T16:58:27.019Z,92.70
2023-06-22T17:00:55.300Z,93.10
2023-06-22T17:03:30.376Z,93.00
2023-06-22T17:06:01.747Z,93.80
2023-06-22T17:08:35.564Z,93.60
2023-06-22T17:11:02.850Z,93.50
2023-06-22T17:13:29.785Z,94.00
2023-06-22T17:16:00.246Z,94.70
2023-06-22T17:18:27.492Z,94.50
2023-06-22T17:20:54.431Z,94.90
2023-06-22T17:23:22.089Z,95.20
2023-06-22T17:25:52.633Z,95.60
2023-06-22T17:28:22.060Z,95.80
2023-06-22T17:31:10.733Z,96.10
2023-06-22T17:33:40.517Z,96.90
2023-06-22T17:36:14.910Z,96.90
2023-06-22T17:38:42.016Z,96.90
2023-06-22T17:41:10.144Z,97.20
2023-06-22T17:43:47.531Z,97.80
2023-06-22T17:46:16.378Z,98.70
2023-06-22T17:48:48.625Z,98.70
2023-06-22T17:51:16.796Z,97.90
2023-06-22T17:53:50.943Z,98.30
2023-06-22T17:56:22.075Z,98.40
2023-06-22T17:58:55.328Z,97.10
2023-06-22T18:01:39.403Z,96.20
2023-06-22T18:04:15.422Z,97.20
2023-06-22T18:06:45.218Z,97.90
2023-06-22T18:09:17.341Z,98.30
2023-06-22T18:11:51.238Z,99.40
2023-06-22T18:14:20.524Z,99.90
2023-06-22T18:16:52.255Z,99.90
2023-06-22T18:19:20.418Z,99.90
2023-06-22T18:21:49.392Z,99.90
2023-06-22T18:24:20.846Z,99.90
2023-06-22T18:26:48.159Z,99.90
2023-06-22T18:29:15.308Z,99.90
2023-06-22T18:31:43.439Z,99.90
2023-06-22T18:34:14.663Z,99.90
2023-06-22T18:36:52.984Z,99.90
2023-06-22T18:39:21.014Z,99.90
2023-06-22T18:41:53.996Z,99.90
2023-06-22T18:44:25.672Z,99.90
2023-06-22T18:46:57.803Z,99.90
2023-06-22T18:49:33.745Z,99.90
2023-06-22T18:52:06.990Z,99.90
2023-06-22T18:54:50.607Z,99.90
2023-06-22T18:57:33.002Z,99.90
2023-06-22T19:00:11.060Z,99.90
2023-06-22T19:02:53.824Z,99.90
2023-06-22T19:05:42.367Z,99.90
2023-06-22T19:08:14.551Z,99.90
2023-06-22T19:10:43.917Z,99.90
2023-06-22T19:13:21.124Z,99.90
2023-06-22T19:15:52.458Z,99.90
2023-06-22T19:18:24.633Z,99.90
2023-06-22T19:21:13.735Z,99.90
2023-06-22T19:23:42.451Z,99.90
2023-06-22T19:26:13.046Z,99.90
2023-06-22T19:28:53.994Z,99.90
2023-06-22T19:31:23.158Z,99.90
2023-06-22T19:34:06.061Z,99.90
2023-06-22T19:36:36.594Z,99.90
2023-06-22T19:39:05.158Z,99.90
2023-06-22T19:41:35.667Z,99.90
2023-06-22T19:44:02.839Z,99.90
2023-06-22T19:46:33.860Z,99.90
2023-06-22T19:49:01.376Z,99.90
2023-06-22T19:51:35.875Z,99.90
2023-06-22T19:54:12.941Z,99.90
2023-06-22T19:56:40.583Z,99.90
2023-06-22T19:59:11.788Z,99.90
2023-06-22T20:01:41.330Z,99.90
2023-06-22T20:04:10.636Z,99.90
2023-06-22T20:06:39.362Z,99.90
2023-06-22T20:09:07.635Z,99.90
2023-06-22T20:11:36.476Z,99.90
2023-06-22T20:14:04.040Z,99.90
2023-06-22T20:16:31.530Z,99.90
2023-06-22T20:19:13.959Z,99.90
2023-06-22T20:21:42.707Z,99.90
2023-06-22T20:24:12.175Z,99.90
2023-06-22T20:26:44.525Z,99.90
2023-06-22T20:29:27.886Z,99.90
2023-06-22T20:32:13.655Z,99.90
2023-06-22T20:34:48.302Z,99.90
2023-06-22T20:37:23.210Z,99.90
2023-06-22T20:39:50.381Z,99.90
2023-06-22T20:42:18.663Z,99.90
2023-06-22T20:44:51.387Z,99.90
2023-06-22T20:47:21.255Z,99.90
2023-06-22T20:49:49.843Z,99.90
2023-06-22T20:52:18.257Z,99.90
2023-06-22T20:54:45.446Z,99.90
2023-06-22T20:57:12.312Z,99.90
2023-06-22T20:59:39.225Z,99.90
2023-06-22T21:02:06.273Z,99.90
2023-06-22T21:04:34.597Z,99.90
2023-06-22T21:07:02.855Z,99.90
2023-06-22T21:09:38.124Z,99.90
2023-06-22T21:12:10.158Z,99.90
2023-06-22T21:14:37.139Z,99.90
2023-06-22T21:17:04.307Z,99.90
2023-06-22T21:19:31.223Z,99.90
2023-06-22T21:21:58.171Z,99.90
2023-06-22T21:24:25.111Z,99.90
2023-06-22T21:26:52.200Z,99.90
2023-06-22T21:29:19.127Z,99.90
2023-06-22T21:31:46.127Z,99.90
2023-06-22T21:34:13.130Z,99.90
2023-06-22T21:36:40.086Z,99.90
2023-06-22T21:39:07.065Z,99.90
2023-06-22T21:41:34.193Z,99.90
2023-06-22T21:44:01.082Z,99.90
2023-06-22T21:46:28.048Z,99.90
2023-06-22T21:48:55.006Z,99.90
2023-06-22T21:51:22.213Z,99.90
2023-06-22T21:53:49.346Z,99.90
2023-06-22T21:56:16.348Z,99.90
2023-06-22T21:58:43.235Z,99.90
2023-06-22T22:01:10.255Z,99.90
2023-06-22T22:03:37.266Z,99.90
2023-06-22T22:06:04.436Z,99.90
2023-06-22T22:08:31.825Z,99.90
2023-06-22T22:10:58.866Z,99.90
2023-06-22T22:13:27.428Z,99.90
2023-06-22T22:15:54.398Z,99.90
2023-06-22T22:18:21.355Z,99.90
2023-06-22T22:20:48.257Z,99.90
2023-06-22T22:23:15.224Z,99.90
2023-06-22T22:25:42.113Z,99.90
2023-06-22T22:28:09.052Z,99.90
2023-06-22T22:30:36.024Z,99.90
2023-06-22T22:33:02.988Z,99.90
2023-06-22T22:35:30.126Z,99.90
2023-06-22T22:37:57.347Z,99.90
2023-06-22T22:40:24.270Z,99.90
2023-06-22T22:42:51.187Z,99.90
2023-06-22T22:45:18.080Z,99.90
2023-06-22T22:47:45.574Z,99.90
2023-06-22T22:50:12.583Z,99.90
2023-06-22T22:52:39.598Z,99.90
2023-06-22T22:55:14.753Z,99.90
2023-06-22T22:57:41.680Z,99.90
2023-06-22T23:00:13.176Z,99.90
2023-06-22T23:02:41.394Z,99.90
2023-06-22T23:05:08.924Z,99.90
2023-06-22T23:07:35.863Z,99.90
2023-06-22T23:10:02.796Z,99.90
2023-06-22T23:12:29.712Z,99.90
2023-06-22T23:14:56.599Z,99.90
2023-06-22T23:17:23.604Z,99.90
2023-06-22T23:19:52.098Z,99.90
2023-06-22T23:22:19.002Z,99.90
2023-06-22T23:24:47.045Z,99.90
2023-06-22T23:27:16.253Z,99.90
2023-06-22T23:29:45.117Z,99.90
2023-06-22T23:32:12.367Z,99.90
2023-06-22T23:34:39.325Z,99.90
2023-06-22T23:37:06.542Z,99.90
2023-06-22T23:39:34.639Z,99.90
2023-06-22T23:42:01.568Z,99.90
2023-06-22T23:44:28.569Z,99.90
2023-06-22T23:46:58.767Z,99.90
2023-06-22T23:49:26.376Z,99.90
2023-06-22T23:51:53.521Z,99.90
2023-06-22T23:54:20.592Z,99.90
2023-06-22T23:56:47.494Z,99.90
2023-06-22T23:59:14.445Z,99.90
